Terminal Aerodrome Forecast
Issued by NWS

Home | Current Version | Previous Version | Text Only | Print | Product List | Glossary On
Versions: 1 2 3 4 5 6 7 8 9 10 11 12 13 14
000
FTUS45 KPIH 050520
TAFSUN
TAF
KSUN 050520Z 0506/0606 31009KT P6SM SCT080 SCT110
     FM051700 12010KT P6SM VCTS BKN070CB OVC100
     FM052200 17010G15KT P6SM VCSH SCT080 BKN110
     FM060200 30007KT P6SM SCT120 BKN200=

USA.gov is the U.S. government's official web portal to all federal, state and local government web resources and services.